sensor_id;sensor_type;location;lat;lon;timestamp;P1;durP1;ratioP1;P2;durP2;ratioP2
57087;SDS011;42965;52.846;6.614;2022-07-04T00:01:30;8.90;;;5.68;;
57087;SDS011;42965;52.846;6.614;2022-07-04T00:03:56;5.95;;;5.05;;
57087;SDS011;42965;52.846;6.614;2022-07-04T00:06:23;6.47;;;5.75;;
57087;SDS011;42965;52.846;6.614;2022-07-04T00:08:50;6.30;;;5.57;;
57087;SDS011;42965;52.846;6.614;2022-07-04T00:11:21;6.32;;;5.72;;
57087;SDS011;42965;52.846;6.614;2022-07-04T00:13:47;6.97;;;6.32;;
57087;SDS011;42965;52.846;6.614;2022-07-04T00:16:14;8.15;;;7.18;;
57087;SDS011;42965;52.846;6.614;2022-07-04T00:18:40;9.82;;;7.05;;
57087;SDS011;42965;52.846;6.614;2022-07-04T00:21:06;8.35;;;7.57;;
57087;SDS011;42965;52.846;6.614;2022-07-04T00:23:32;9.25;;;7.63;;
57087;SDS011;42965;52.846;6.614;2022-07-04T00:25:59;9.23;;;8.32;;
57087;SDS011;42965;52.846;6.614;2022-07-04T00:28:26;8.35;;;7.60;;
57087;SDS011;42965;52.846;6.614;2022-07-04T00:30:52;8.68;;;7.00;;
57087;SDS011;42965;52.846;6.614;2022-07-04T00:33:18;6.88;;;5.30;;
57087;SDS011;42965;52.846;6.614;2022-07-04T00:35:44;7.05;;;5.32;;
57087;SDS011;42965;52.846;6.614;2022-07-04T00:38:11;6.82;;;5.93;;
57087;SDS011;42965;52.846;6.614;2022-07-04T00:40:37;7.35;;;6.60;;
57087;SDS011;42965;52.846;6.614;2022-07-04T00:43:03;7.63;;;6.88;;
57087;SDS011;42965;52.846;6.614;2022-07-04T00:45:30;7.88;;;7.07;;
57087;SDS011;42965;52.846;6.614;2022-07-04T00:47:56;8.50;;;7.60;;
57087;SDS011;42965;52.846;6.614;2022-07-04T00:50:23;10.30;;;7.88;;
57087;SDS011;42965;52.846;6.614;2022-07-04T00:52:51;8.98;;;7.93;;
57087;SDS011;42965;52.846;6.614;2022-07-04T00:55:22;10.32;;;8.55;;
57087;SDS011;42965;52.846;6.614;2022-07-04T00:57:50;10.10;;;9.10;;
57087;SDS011;42965;52.846;6.614;2022-07-04T01:00:16;10.77;;;9.68;;
57087;SDS011;42965;52.846;6.614;2022-07-04T01:02:44;10.63;;;9.32;;
57087;SDS011;42965;52.846;6.614;2022-07-04T01:05:10;10.10;;;8.90;;
57087;SDS011;42965;52.846;6.614;2022-07-04T01:07:36;10.82;;;9.82;;
57087;SDS011;42965;52.846;6.614;2022-07-04T01:10:03;10.65;;;9.55;;
57087;SDS011;42965;52.846;6.614;2022-07-04T01:12:29;9.75;;;8.85;;
57087;SDS011;42965;52.846;6.614;2022-07-04T01:14:56;11.65;;;10.45;;
57087;SDS011;42965;52.846;6.614;2022-07-04T01:17:23;11.63;;;10.38;;
57087;SDS011;42965;52.846;6.614;2022-07-04T01:19:49;12.63;;;11.32;;
57087;SDS011;42965;52.846;6.614;2022-07-04T01:22:16;10.55;;;9.55;;
57087;SDS011;42965;52.846;6.614;2022-07-04T01:24:42;11.00;;;9.90;;
57087;SDS011;42965;52.846;6.614;2022-07-04T01:27:12;9.38;;;8.48;;
57087;SDS011;42965;52.846;6.614;2022-07-04T01:29:39;8.82;;;7.60;;
57087;SDS011;42965;52.846;6.614;2022-07-04T01:32:08;9.13;;;8.10;;
57087;SDS011;42965;52.846;6.614;2022-07-04T01:34:35;11.88;;;8.90;;
57087;SDS011;42965;52.846;6.614;2022-07-04T01:37:02;10.48;;;9.07;;
57087;SDS011;42965;52.846;6.614;2022-07-04T01:39:29;21.02;;;8.40;;
57087;SDS011;42965;52.846;6.614;2022-07-04T01:41:55;9.77;;;7.82;;
57087;SDS011;42965;52.846;6.614;2022-07-04T01:44:21;15.05;;;9.60;;
57087;SDS011;42965;52.846;6.614;2022-07-04T01:46:48;10.38;;;9.35;;
57087;SDS011;42965;52.846;6.614;2022-07-04T01:49:14;9.52;;;8.65;;
57087;SDS011;42965;52.846;6.614;2022-07-04T01:51:47;10.52;;;9.40;;
57087;SDS011;42965;52.846;6.614;2022-07-04T01:54:14;10.60;;;9.50;;
57087;SDS011;42965;52.846;6.614;2022-07-04T01:56:41;14.40;;;11.32;;
57087;SDS011;42965;52.846;6.614;2022-07-04T01:59:08;11.48;;;10.27;;
57087;SDS011;42965;52.846;6.614;2022-07-04T02:01:35;15.57;;;11.85;;
57087;SDS011;42965;52.846;6.614;2022-07-04T02:04:03;13.27;;;12.05;;
57087;SDS011;42965;52.846;6.614;2022-07-04T02:06:31;13.35;;;11.75;;
57087;SDS011;42965;52.846;6.614;2022-07-04T02:09:01;13.38;;;11.38;;
57087;SDS011;42965;52.846;6.614;2022-07-04T02:11:40;15.68;;;11.32;;
57087;SDS011;42965;52.846;6.614;2022-07-04T02:14:25;11.50;;;10.50;;
57087;SDS011;42965;52.846;6.614;2022-07-04T02:16:51;13.00;;;11.80;;
57087;SDS011;42965;52.846;6.614;2022-07-04T02:19:18;11.40;;;10.23;;
57087;SDS011;42965;52.846;6.614;2022-07-04T02:21:44;12.65;;;11.35;;
57087;SDS011;42965;52.846;6.614;2022-07-04T02:24:11;11.55;;;10.38;;
57087;SDS011;42965;52.846;6.614;2022-07-04T02:26:37;12.00;;;10.50;;
57087;SDS011;42965;52.846;6.614;2022-07-04T02:29:04;37.42;;;10.82;;
57087;SDS011;42965;52.846;6.614;2022-07-04T02:31:30;12.75;;;9.15;;
57087;SDS011;42965;52.846;6.614;2022-07-04T02:33:57;12.07;;;8.70;;
57087;SDS011;42965;52.846;6.614;2022-07-04T02:36:23;10.35;;;9.38;;
57087;SDS011;42965;52.846;6.614;2022-07-04T02:38:50;10.07;;;9.07;;
57087;SDS011;42965;52.846;6.614;2022-07-04T02:41:16;11.10;;;10.15;;
57087;SDS011;42965;52.846;6.614;2022-07-04T02:43:42;9.98;;;8.98;;
57087;SDS011;42965;52.846;6.614;2022-07-04T02:46:09;10.05;;;9.15;;
57087;SDS011;42965;52.846;6.614;2022-07-04T02:48:35;8.98;;;8.10;;
57087;SDS011;42965;52.846;6.614;2022-07-04T02:51:03;9.75;;;8.68;;
57087;SDS011;42965;52.846;6.614;2022-07-04T02:53:29;10.75;;;9.80;;
57087;SDS011;42965;52.846;6.614;2022-07-04T02:55:58;10.82;;;9.73;;
57087;SDS011;42965;52.846;6.614;2022-07-04T02:58:29;9.65;;;8.82;;
57087;SDS011;42965;52.846;6.614;2022-07-04T03:00:56;8.55;;;7.70;;
57087;SDS011;42965;52.846;6.614;2022-07-04T03:03:22;9.05;;;8.15;;
57087;SDS011;42965;52.846;6.614;2022-07-04T03:05:48;10.13;;;9.18;;
57087;SDS011;42965;52.846;6.614;2022-07-04T03:08:14;12.13;;;10.88;;
57087;SDS011;42965;52.846;6.614;2022-07-04T03:10:41;11.85;;;10.73;;
57087;SDS011;42965;52.846;6.614;2022-07-04T03:13:07;12.55;;;11.23;;
57087;SDS011;42965;52.846;6.614;2022-07-04T03:15:33;11.65;;;10.55;;
57087;SDS011;42965;52.846;6.614;2022-07-04T03:17:59;16.65;;;12.73;;
57087;SDS011;42965;52.846;6.614;2022-07-04T03:20:25;12.68;;;11.50;;
57087;SDS011;42965;52.846;6.614;2022-07-04T03:22:52;11.55;;;10.35;;
57087;SDS011;42965;52.846;6.614;2022-07-04T03:25:20;11.75;;;10.65;;
57087;SDS011;42965;52.846;6.614;2022-07-04T03:27:46;14.27;;;12.80;;
57087;SDS011;42965;52.846;6.614;2022-07-04T03:30:16;13.77;;;12.48;;
57087;SDS011;42965;52.846;6.614;2022-07-04T03:32:42;15.90;;;14.23;;
57087;SDS011;42965;52.846;6.614;2022-07-04T03:35:10;15.07;;;13.55;;
57087;SDS011;42965;52.846;6.614;2022-07-04T03:37:37;14.07;;;12.77;;
57087;SDS011;42965;52.846;6.614;2022-07-04T03:40:03;15.30;;;13.80;;
57087;SDS011;42965;52.846;6.614;2022-07-04T03:42:30;15.00;;;13.30;;
57087;SDS011;42965;52.846;6.614;2022-07-04T03:44:57;14.63;;;13.20;;
57087;SDS011;42965;52.846;6.614;2022-07-04T03:47:23;14.15;;;12.85;;
57087;SDS011;42965;52.846;6.614;2022-07-04T03:49:49;14.40;;;13.00;;
57087;SDS011;42965;52.846;6.614;2022-07-04T03:52:16;14.57;;;13.20;;
57087;SDS011;42965;52.846;6.614;2022-07-04T03:54:42;17.10;;;15.25;;
57087;SDS011;42965;52.846;6.614;2022-07-04T03:57:08;16.85;;;15.35;;
57087;SDS011;42965;52.846;6.614;2022-07-04T03:59:35;17.15;;;15.45;;
57087;SDS011;42965;52.846;6.614;2022-07-04T04:02:02;16.58;;;14.95;;
57087;SDS011;42965;52.846;6.614;2022-07-04T04:04:28;16.35;;;14.73;;
57087;SDS011;42965;52.846;6.614;2022-07-04T04:07:16;16.58;;;14.88;;
57087;SDS011;42965;52.846;6.614;2022-07-04T04:09:42;18.98;;;15.30;;
57087;SDS011;42965;52.846;6.614;2022-07-04T04:12:09;16.75;;;15.07;;
57087;SDS011;42965;52.846;6.614;2022-07-04T04:14:36;17.20;;;15.52;;
57087;SDS011;42965;52.846;6.614;2022-07-04T04:17:02;15.10;;;13.50;;
57087;SDS011;42965;52.846;6.614;2022-07-04T04:19:28;14.85;;;13.40;;
57087;SDS011;42965;52.846;6.614;2022-07-04T04:21:55;16.63;;;15.02;;
57087;SDS011;42965;52.846;6.614;2022-07-04T04:24:21;16.55;;;14.88;;
57087;SDS011;42965;52.846;6.614;2022-07-04T04:26:48;16.05;;;14.32;;
57087;SDS011;42965;52.846;6.614;2022-07-04T04:29:14;16.55;;;14.77;;
57087;SDS011;42965;52.846;6.614;2022-07-04T04:31:40;17.25;;;15.45;;
57087;SDS011;42965;52.846;6.614;2022-07-04T04:34:07;17.60;;;15.93;;
57087;SDS011;42965;52.846;6.614;2022-07-04T04:36:33;17.73;;;16.02;;
57087;SDS011;42965;52.846;6.614;2022-07-04T04:38:59;19.63;;;17.33;;
57087;SDS011;42965;52.846;6.614;2022-07-04T04:41:26;19.00;;;17.10;;
57087;SDS011;42965;52.846;6.614;2022-07-04T04:43:52;19.75;;;17.33;;
57087;SDS011;42965;52.846;6.614;2022-07-04T04:46:18;18.38;;;16.67;;
57087;SDS011;42965;52.846;6.614;2022-07-04T04:48:46;16.55;;;15.02;;
57087;SDS011;42965;52.846;6.614;2022-07-04T04:51:12;17.73;;;16.02;;
57087;SDS011;42965;52.846;6.614;2022-07-04T04:53:41;18.95;;;15.40;;
57087;SDS011;42965;52.846;6.614;2022-07-04T04:56:11;17.35;;;15.25;;
57087;SDS011;42965;52.846;6.614;2022-07-04T04:58:37;16.67;;;14.98;;
57087;SDS011;42965;52.846;6.614;2022-07-04T05:01:06;18.20;;;16.05;;
57087;SDS011;42965;52.846;6.614;2022-07-04T05:03:52;18.00;;;14.23;;
57087;SDS011;42965;52.846;6.614;2022-07-04T05:06:25;17.52;;;14.77;;
57087;SDS011;42965;52.846;6.614;2022-07-04T05:08:51;15.65;;;14.15;;
57087;SDS011;42965;52.846;6.614;2022-07-04T05:11:27;16.75;;;13.75;;
57087;SDS011;42965;52.846;6.614;2022-07-04T05:13:53;15.15;;;12.10;;
57087;SDS011;42965;52.846;6.614;2022-07-04T05:16:23;14.50;;;12.43;;
57087;SDS011;42965;52.846;6.614;2022-07-04T05:18:49;13.82;;;11.50;;
57087;SDS011;42965;52.846;6.614;2022-07-04T05:21:16;11.52;;;10.32;;
57087;SDS011;42965;52.846;6.614;2022-07-04T05:23:43;12.15;;;9.57;;
57087;SDS011;42965;52.846;6.614;2022-07-04T05:26:10;10.50;;;9.25;;
57087;SDS011;42965;52.846;6.614;2022-07-04T05:28:42;10.20;;;9.20;;
57087;SDS011;42965;52.846;6.614;2022-07-04T05:31:11;11.23;;;8.77;;
57087;SDS011;42965;52.846;6.614;2022-07-04T05:33:37;10.05;;;8.27;;
57087;SDS011;42965;52.846;6.614;2022-07-04T05:36:04;11.27;;;8.20;;
57087;SDS011;42965;52.846;6.614;2022-07-04T05:38:30;10.98;;;9.00;;
57087;SDS011;42965;52.846;6.614;2022-07-04T05:40:56;13.27;;;8.80;;
57087;SDS011;42965;52.846;6.614;2022-07-04T05:43:22;9.80;;;7.72;;
57087;SDS011;42965;52.846;6.614;2022-07-04T05:45:51;11.80;;;7.97;;
57087;SDS011;42965;52.846;6.614;2022-07-04T05:48:17;9.32;;;7.72;;
57087;SDS011;42965;52.846;6.614;2022-07-04T05:50:44;9.95;;;7.03;;
57087;SDS011;42965;52.846;6.614;2022-07-04T05:53:10;9.68;;;6.95;;
57087;SDS011;42965;52.846;6.614;2022-07-04T05:55:38;11.23;;;7.53;;
57087;SDS011;42965;52.846;6.614;2022-07-04T05:58:05;8.30;;;6.15;;
57087;SDS011;42965;52.846;6.614;2022-07-04T06:00:31;7.68;;;6.60;;
57087;SDS011;42965;52.846;6.614;2022-07-04T06:02:57;9.43;;;6.07;;
57087;SDS011;42965;52.846;6.614;2022-07-04T06:05:23;10.13;;;6.60;;
57087;SDS011;42965;52.846;6.614;2022-07-04T06:07:49;8.23;;;6.22;;
57087;SDS011;42965;52.846;6.614;2022-07-04T06:10:15;11.48;;;6.72;;
57087;SDS011;42965;52.846;6.614;2022-07-04T06:12:43;7.10;;;6.22;;
57087;SDS011;42965;52.846;6.614;2022-07-04T06:15:09;9.55;;;6.60;;
57087;SDS011;42965;52.846;6.614;2022-07-04T06:17:36;10.45;;;6.60;;
57087;SDS011;42965;52.846;6.614;2022-07-04T06:20:03;7.93;;;7.00;;
57087;SDS011;42965;52.846;6.614;2022-07-04T06:22:41;10.68;;;6.88;;
57087;SDS011;42965;52.846;6.614;2022-07-04T06:25:13;9.85;;;6.57;;
57087;SDS011;42965;52.846;6.614;2022-07-04T06:27:44;9.32;;;6.07;;
57087;SDS011;42965;52.846;6.614;2022-07-04T06:30:12;9.97;;;6.53;;
57087;SDS011;42965;52.846;6.614;2022-07-04T06:32:43;8.52;;;6.00;;
57087;SDS011;42965;52.846;6.614;2022-07-04T06:35:18;9.40;;;5.82;;
57087;SDS011;42965;52.846;6.614;2022-07-04T06:38:07;8.95;;;6.00;;
57087;SDS011;42965;52.846;6.614;2022-07-04T06:40:34;8.00;;;6.50;;
57087;SDS011;42965;52.846;6.614;2022-07-04T06:43:02;8.05;;;5.95;;
57087;SDS011;42965;52.846;6.614;2022-07-04T06:45:29;8.80;;;6.22;;
57087;SDS011;42965;52.846;6.614;2022-07-04T06:47:56;11.23;;;5.60;;
57087;SDS011;42965;52.846;6.614;2022-07-04T06:50:22;10.30;;;6.00;;
57087;SDS011;42965;52.846;6.614;2022-07-04T06:52:49;8.85;;;5.03;;
57087;SDS011;42965;52.846;6.614;2022-07-04T06:55:15;7.78;;;5.15;;
57087;SDS011;42965;52.846;6.614;2022-07-04T06:57:41;11.15;;;5.95;;
57087;SDS011;42965;52.846;6.614;2022-07-04T07:00:07;8.63;;;5.47;;
57087;SDS011;42965;52.846;6.614;2022-07-04T07:02:34;11.18;;;5.15;;
57087;SDS011;42965;52.846;6.614;2022-07-04T07:05:01;9.52;;;4.80;;
57087;SDS011;42965;52.846;6.614;2022-07-04T07:07:28;9.85;;;5.10;;
57087;SDS011;42965;52.846;6.614;2022-07-04T07:09:54;8.13;;;4.88;;
57087;SDS011;42965;52.846;6.614;2022-07-04T07:12:21;8.90;;;5.00;;
57087;SDS011;42965;52.846;6.614;2022-07-04T07:14:48;8.48;;;5.00;;
57087;SDS011;42965;52.846;6.614;2022-07-04T07:17:15;11.32;;;5.32;;
57087;SDS011;42965;52.846;6.614;2022-07-04T07:19:42;13.00;;;5.47;;
57087;SDS011;42965;52.846;6.614;2022-07-04T07:22:10;10.30;;;4.65;;
57087;SDS011;42965;52.846;6.614;2022-07-04T07:24:38;9.48;;;5.20;;
57087;SDS011;42965;52.846;6.614;2022-07-04T07:27:04;8.52;;;5.10;;
57087;SDS011;42965;52.846;6.614;2022-07-04T07:29:31;10.35;;;5.53;;
57087;SDS011;42965;52.846;6.614;2022-07-04T07:31:57;9.98;;;5.38;;
57087;SDS011;42965;52.846;6.614;2022-07-04T07:34:24;17.45;;;12.52;;
57087;SDS011;42965;52.846;6.614;2022-07-04T07:36:50;10.98;;;6.95;;
57087;SDS011;42965;52.846;6.614;2022-07-04T07:39:16;15.50;;;12.63;;
57087;SDS011;42965;52.846;6.614;2022-07-04T07:41:44;8.23;;;4.70;;
57087;SDS011;42965;52.846;6.614;2022-07-04T07:44:17;13.77;;;9.05;;
57087;SDS011;42965;52.846;6.614;2022-07-04T07:50:28;12.25;;;6.53;;
57087;SDS011;42965;52.846;6.614;2022-07-04T07:53:39;10.70;;;5.82;;
57087;SDS011;42965;52.846;6.614;2022-07-04T07:56:06;7.43;;;4.43;;
57087;SDS011;42965;52.846;6.614;2022-07-04T07:58:32;9.57;;;4.38;;
57087;SDS011;42965;52.846;6.614;2022-07-04T08:00:59;10.70;;;4.35;;
57087;SDS011;42965;52.846;6.614;2022-07-04T08:03:27;8.05;;;3.72;;
57087;SDS011;42965;52.846;6.614;2022-07-04T08:06:13;8.65;;;3.75;;
57087;SDS011;42965;52.846;6.614;2022-07-04T08:08:40;7.15;;;2.95;;
57087;SDS011;42965;52.846;6.614;2022-07-04T08:11:08;8.30;;;3.42;;
57087;SDS011;42965;52.846;6.614;2022-07-04T08:13:35;9.75;;;3.53;;
57087;SDS011;42965;52.846;6.614;2022-07-04T08:16:01;8.52;;;3.25;;
57087;SDS011;42965;52.846;6.614;2022-07-04T08:18:28;8.27;;;3.90;;
57087;SDS011;42965;52.846;6.614;2022-07-04T08:20:54;13.38;;;3.70;;
57087;SDS011;42965;52.846;6.614;2022-07-04T08:23:21;8.55;;;3.42;;
57087;SDS011;42965;52.846;6.614;2022-07-04T08:25:47;12.18;;;3.90;;
57087;SDS011;42965;52.846;6.614;2022-07-04T08:28:19;7.88;;;3.70;;
57087;SDS011;42965;52.846;6.614;2022-07-04T08:30:45;7.13;;;2.53;;
57087;SDS011;42965;52.846;6.614;2022-07-04T08:33:17;10.98;;;3.42;;
57087;SDS011;42965;52.846;6.614;2022-07-04T08:35:44;8.48;;;3.45;;
57087;SDS011;42965;52.846;6.614;2022-07-04T08:38:10;9.63;;;2.80;;
57087;SDS011;42965;52.846;6.614;2022-07-04T08:40:37;6.88;;;2.10;;
57087;SDS011;42965;52.846;6.614;2022-07-04T08:43:03;9.85;;;3.08;;
57087;SDS011;42965;52.846;6.614;2022-07-04T08:45:30;6.88;;;2.33;;
57087;SDS011;42965;52.846;6.614;2022-07-04T08:48:02;7.45;;;2.60;;
57087;SDS011;42965;52.846;6.614;2022-07-04T08:50:34;6.43;;;1.92;;
57087;SDS011;42965;52.846;6.614;2022-07-04T08:53:08;5.22;;;2.10;;
57087;SDS011;42965;52.846;6.614;2022-07-04T08:55:37;4.85;;;1.88;;
57087;SDS011;42965;52.846;6.614;2022-07-04T08:58:24;3.97;;;1.70;;
57087;SDS011;42965;52.846;6.614;2022-07-04T09:00:53;6.05;;;2.78;;
57087;SDS011;42965;52.846;6.614;2022-07-04T09:03:19;5.93;;;1.85;;
57087;SDS011;42965;52.846;6.614;2022-07-04T09:05:46;6.65;;;1.70;;
57087;SDS011;42965;52.846;6.614;2022-07-04T09:08:12;8.10;;;1.80;;
57087;SDS011;42965;52.846;6.614;2022-07-04T09:10:39;4.43;;;1.73;;
57087;SDS011;42965;52.846;6.614;2022-07-04T09:13:06;5.07;;;1.65;;
57087;SDS011;42965;52.846;6.614;2022-07-04T09:15:34;3.97;;;1.48;;
57087;SDS011;42965;52.846;6.614;2022-07-04T09:18:01;5.18;;;1.60;;
57087;SDS011;42965;52.846;6.614;2022-07-04T09:20:30;4.05;;;1.80;;
57087;SDS011;42965;52.846;6.614;2022-07-04T09:22:57;5.22;;;1.75;;
57087;SDS011;42965;52.846;6.614;2022-07-04T09:25:24;7.07;;;2.28;;
57087;SDS011;42965;52.846;6.614;2022-07-04T09:27:52;5.22;;;1.90;;
57087;SDS011;42965;52.846;6.614;2022-07-04T09:30:26;3.60;;;1.73;;
57087;SDS011;42965;52.846;6.614;2022-07-04T09:32:54;9.18;;;1.95;;
57087;SDS011;42965;52.846;6.614;2022-07-04T09:35:30;5.10;;;1.90;;
57087;SDS011;42965;52.846;6.614;2022-07-04T09:38:03;4.25;;;2.00;;
57087;SDS011;42965;52.846;6.614;2022-07-04T09:40:34;6.55;;;2.08;;
57087;SDS011;42965;52.846;6.614;2022-07-04T09:43:22;6.38;;;1.80;;
57087;SDS011;42965;52.846;6.614;2022-07-04T09:45:53;4.07;;;1.77;;
57087;SDS011;42965;52.846;6.614;2022-07-04T09:48:20;5.68;;;1.42;;
57087;SDS011;42965;52.846;6.614;2022-07-04T09:50:46;4.38;;;1.73;;
57087;SDS011;42965;52.846;6.614;2022-07-04T09:53:13;5.30;;;1.60;;
57087;SDS011;42965;52.846;6.614;2022-07-04T09:55:39;6.00;;;1.80;;
57087;SDS011;42965;52.846;6.614;2022-07-04T09:58:07;3.60;;;1.50;;
57087;SDS011;42965;52.846;6.614;2022-07-04T10:00:36;6.75;;;1.95;;
57087;SDS011;42965;52.846;6.614;2022-07-04T10:05:42;5.00;;;1.92;;
57087;SDS011;42965;52.846;6.614;2022-07-04T10:08:10;5.50;;;1.70;;
57087;SDS011;42965;52.846;6.614;2022-07-04T10:10:37;5.32;;;1.50;;
57087;SDS011;42965;52.846;6.614;2022-07-04T10:13:06;5.43;;;1.52;;
57087;SDS011;42965;52.846;6.614;2022-07-04T10:15:34;5.65;;;1.88;;
57087;SDS011;42965;52.846;6.614;2022-07-04T10:20:32;3.40;;;1.50;;
57087;SDS011;42965;52.846;6.614;2022-07-04T10:22:58;2.58;;;1.00;;
57087;SDS011;42965;52.846;6.614;2022-07-04T10:25:26;3.35;;;2.00;;
57087;SDS011;42965;52.846;6.614;2022-07-04T10:27:53;3.78;;;1.67;;
57087;SDS011;42965;52.846;6.614;2022-07-04T10:30:29;5.78;;;2.70;;
57087;SDS011;42965;52.846;6.614;2022-07-04T10:32:59;5.25;;;1.80;;
57087;SDS011;42965;52.846;6.614;2022-07-04T10:35:46;3.95;;;1.38;;
57087;SDS011;42965;52.846;6.614;2022-07-04T10:38:13;5.75;;;1.20;;
57087;SDS011;42965;52.846;6.614;2022-07-04T10:40:42;3.83;;;1.42;;
57087;SDS011;42965;52.846;6.614;2022-07-04T10:48:52;3.08;;;1.42;;
57087;SDS011;42965;52.846;6.614;2022-07-04T10:51:34;4.65;;;1.60;;
57087;SDS011;42965;52.846;6.614;2022-07-04T10:54:02;3.00;;;1.55;;
57087;SDS011;42965;52.846;6.614;2022-07-04T10:56:34;3.65;;;1.63;;
57087;SDS011;42965;52.846;6.614;2022-07-04T10:59:19;3.80;;;1.40;;
57087;SDS011;42965;52.846;6.614;2022-07-04T11:02:30;4.40;;;1.42;;
57087;SDS011;42965;52.846;6.614;2022-07-04T11:17:59;3.65;;;1.80;;
57087;SDS011;42965;52.846;6.614;2022-07-04T11:20:35;3.80;;;1.48;;
57087;SDS011;42965;52.846;6.614;2022-07-04T11:23:11;4.35;;;1.92;;
57087;SDS011;42965;52.846;6.614;2022-07-04T11:25:39;3.80;;;1.17;;
57087;SDS011;42965;52.846;6.614;2022-07-04T11:30:49;4.18;;;1.25;;
57087;SDS011;42965;52.846;6.614;2022-07-04T11:33:23;3.50;;;1.40;;
57087;SDS011;42965;52.846;6.614;2022-07-04T11:36:04;2.53;;;1.30;;
57087;SDS011;42965;52.846;6.614;2022-07-04T11:41:16;2.13;;;1.00;;
57087;SDS011;42965;52.846;6.614;2022-07-04T11:44:02;3.13;;;1.20;;
57087;SDS011;42965;52.846;6.614;2022-07-04T11:46:48;3.38;;;1.45;;
57087;SDS011;42965;52.846;6.614;2022-07-04T11:49:14;2.72;;;0.88;;
57087;SDS011;42965;52.846;6.614;2022-07-04T11:51:41;1.15;;;0.65;;
57087;SDS011;42965;52.846;6.614;2022-07-04T11:54:09;2.90;;;0.77;;
57087;SDS011;42965;52.846;6.614;2022-07-04T11:56:35;2.42;;;0.80;;
57087;SDS011;42965;52.846;6.614;2022-07-04T11:59:09;4.30;;;1.10;;
57087;SDS011;42965;52.846;6.614;2022-07-04T12:01:36;3.13;;;1.05;;
57087;SDS011;42965;52.846;6.614;2022-07-04T12:04:16;2.65;;;1.20;;
57087;SDS011;42965;52.846;6.614;2022-07-04T12:06:44;3.38;;;1.02;;
57087;SDS011;42965;52.846;6.614;2022-07-04T12:09:12;3.83;;;1.27;;
57087;SDS011;42965;52.846;6.614;2022-07-04T12:11:53;2.35;;;0.88;;
57087;SDS011;42965;52.846;6.614;2022-07-04T12:17:08;2.72;;;0.82;;
57087;SDS011;42965;52.846;6.614;2022-07-04T12:19:38;1.38;;;0.60;;
57087;SDS011;42965;52.846;6.614;2022-07-04T12:22:23;3.58;;;1.60;;
57087;SDS011;42965;52.846;6.614;2022-07-04T12:24:50;4.38;;;1.60;;
57087;SDS011;42965;52.846;6.614;2022-07-04T12:27:20;4.03;;;1.65;;
57087;SDS011;42965;52.846;6.614;2022-07-04T12:29:47;24.73;;;22.35;;
57087;SDS011;42965;52.846;6.614;2022-07-04T12:32:15;7.38;;;5.25;;
57087;SDS011;42965;52.846;6.614;2022-07-04T12:34:42;5.15;;;2.83;;
57087;SDS011;42965;52.846;6.614;2022-07-04T12:37:09;8.15;;;5.88;;
57087;SDS011;42965;52.846;6.614;2022-07-04T12:39:37;8.20;;;6.70;;
57087;SDS011;42965;52.846;6.614;2022-07-04T12:42:16;5.22;;;3.00;;
57087;SDS011;42965;52.846;6.614;2022-07-04T12:44:44;5.63;;;2.35;;
57087;SDS011;42965;52.846;6.614;2022-07-04T12:47:11;3.58;;;3.22;;
57087;SDS011;42965;52.846;6.614;2022-07-04T12:49:41;3.95;;;3.22;;
57087;SDS011;42965;52.846;6.614;2022-07-04T12:52:14;4.97;;;3.22;;
57087;SDS011;42965;52.846;6.614;2022-07-04T12:54:42;2.38;;;1.27;;
57087;SDS011;42965;52.846;6.614;2022-07-04T12:57:15;7.63;;;6.82;;
57087;SDS011;42965;52.846;6.614;2022-07-04T13:02:10;7.65;;;6.60;;
57087;SDS011;42965;52.846;6.614;2022-07-04T13:04:40;1.93;;;1.50;;
57087;SDS011;42965;52.846;6.614;2022-07-04T13:07:16;5.97;;;3.90;;
57087;SDS011;42965;52.846;6.614;2022-07-04T13:09:44;2.17;;;1.60;;
57087;SDS011;42965;52.846;6.614;2022-07-04T13:12:12;5.68;;;0.73;;
57087;SDS011;42965;52.846;6.614;2022-07-04T13:14:55;2.75;;;1.13;;
57087;SDS011;42965;52.846;6.614;2022-07-04T13:17:23;2.75;;;0.85;;
57087;SDS011;42965;52.846;6.614;2022-07-04T13:19:50;1.30;;;0.55;;
57087;SDS011;42965;52.846;6.614;2022-07-04T13:22:18;1.98;;;1.00;;
57087;SDS011;42965;52.846;6.614;2022-07-04T13:24:46;1.17;;;0.50;;
57087;SDS011;42965;52.846;6.614;2022-07-04T13:27:12;12.45;;;11.18;;
57087;SDS011;42965;52.846;6.614;2022-07-04T13:29:39;5.72;;;3.45;;
57087;SDS011;42965;52.846;6.614;2022-07-04T13:32:06;4.82;;;1.92;;
57087;SDS011;42965;52.846;6.614;2022-07-04T13:34:32;13.05;;;11.73;;
57087;SDS011;42965;52.846;6.614;2022-07-04T13:36:58;3.22;;;1.00;;
57087;SDS011;42965;52.846;6.614;2022-07-04T13:39:25;2.53;;;0.65;;
57087;SDS011;42965;52.846;6.614;2022-07-04T13:41:51;6.47;;;4.93;;
57087;SDS011;42965;52.846;6.614;2022-07-04T13:44:17;4.85;;;1.10;;
57087;SDS011;42965;52.846;6.614;2022-07-04T13:46:44;2.33;;;0.93;;
57087;SDS011;42965;52.846;6.614;2022-07-04T13:49:10;5.30;;;4.40;;
57087;SDS011;42965;52.846;6.614;2022-07-04T13:51:37;11.30;;;10.10;;
57087;SDS011;42965;52.846;6.614;2022-07-04T13:54:04;3.90;;;3.08;;
57087;SDS011;42965;52.846;6.614;2022-07-04T13:56:31;7.25;;;4.50;;
57087;SDS011;42965;52.846;6.614;2022-07-04T13:58:59;4.35;;;0.95;;
57087;SDS011;42965;52.846;6.614;2022-07-04T14:01:26;4.32;;;3.28;;
57087;SDS011;42965;52.846;6.614;2022-07-04T14:03:52;1.02;;;0.40;;
57087;SDS011;42965;52.846;6.614;2022-07-04T14:06:18;3.53;;;1.58;;
57087;SDS011;42965;52.846;6.614;2022-07-04T14:08:45;3.90;;;1.98;;
57087;SDS011;42965;52.846;6.614;2022-07-04T14:11:12;5.95;;;4.03;;
57087;SDS011;42965;52.846;6.614;2022-07-04T14:13:38;3.03;;;1.42;;
57087;SDS011;42965;52.846;6.614;2022-07-04T14:16:05;2.15;;;0.70;;
57087;SDS011;42965;52.846;6.614;2022-07-04T14:18:32;1.25;;;0.65;;
57087;SDS011;42965;52.846;6.614;2022-07-04T14:20:59;2.10;;;0.60;;
57087;SDS011;42965;52.846;6.614;2022-07-04T14:23:25;1.00;;;0.60;;
57087;SDS011;42965;52.846;6.614;2022-07-04T14:26:10;1.25;;;0.60;;
57087;SDS011;42965;52.846;6.614;2022-07-04T14:28:39;2.85;;;1.13;;
57087;SDS011;42965;52.846;6.614;2022-07-04T14:31:06;2.63;;;1.17;;
57087;SDS011;42965;52.846;6.614;2022-07-04T14:33:33;2.85;;;1.35;;
57087;SDS011;42965;52.846;6.614;2022-07-04T14:36:00;4.90;;;2.30;;
57087;SDS011;42965;52.846;6.614;2022-07-04T14:38:27;2.97;;;0.70;;
57087;SDS011;42965;52.846;6.614;2022-07-04T14:40:53;2.25;;;0.82;;
57087;SDS011;42965;52.846;6.614;2022-07-04T14:43:20;1.27;;;0.68;;
57087;SDS011;42965;52.846;6.614;2022-07-04T14:45:47;1.23;;;0.60;;
57087;SDS011;42965;52.846;6.614;2022-07-04T14:48:14;1.95;;;0.60;;
57087;SDS011;42965;52.846;6.614;2022-07-04T14:50:40;2.38;;;0.57;;
57087;SDS011;42965;52.846;6.614;2022-07-04T14:53:06;3.05;;;1.00;;
57087;SDS011;42965;52.846;6.614;2022-07-04T14:55:33;3.78;;;0.80;;
57087;SDS011;42965;52.846;6.614;2022-07-04T14:57:59;1.42;;;0.73;;
57087;SDS011;42965;52.846;6.614;2022-07-04T15:00:25;2.67;;;0.80;;
57087;SDS011;42965;52.846;6.614;2022-07-04T15:02:55;2.05;;;0.63;;
57087;SDS011;42965;52.846;6.614;2022-07-04T15:05:21;3.13;;;0.80;;
57087;SDS011;42965;52.846;6.614;2022-07-04T15:07:47;1.77;;;0.60;;
57087;SDS011;42965;52.846;6.614;2022-07-04T15:10:14;1.48;;;0.70;;
57087;SDS011;42965;52.846;6.614;2022-07-04T15:12:41;2.28;;;0.70;;
57087;SDS011;42965;52.846;6.614;2022-07-04T15:15:07;3.95;;;0.88;;
57087;SDS011;42965;52.846;6.614;2022-07-04T15:17:34;2.95;;;0.90;;
57087;SDS011;42965;52.846;6.614;2022-07-04T15:20:01;2.03;;;0.77;;
57087;SDS011;42965;52.846;6.614;2022-07-04T15:22:46;2.67;;;0.60;;
57087;SDS011;42965;52.846;6.614;2022-07-04T15:25:31;2.13;;;0.65;;
57087;SDS011;42965;52.846;6.614;2022-07-04T15:27:57;1.95;;;0.60;;